createdAt,value
2019-03-16T00:00:04.440Z,13.7
2019-03-16T00:15:04.857Z,13.8
2019-03-16T00:30:04.852Z,13.7
2019-03-16T00:45:04.187Z,13.7
2019-03-16T01:00:04.939Z,13.6
2019-03-16T01:15:04.750Z,13.6
2019-03-16T01:30:04.286Z,13.6
2019-03-16T01:45:04.654Z,13.6
2019-03-16T02:00:04.463Z,13.6
2019-03-16T02:15:04.400Z,13.7
2019-03-16T02:30:04.362Z,13.7
2019-03-16T02:45:04.107Z,13.7
2019-03-16T03:00:04.325Z,13.7
2019-03-16T03:15:05.015Z,13.7
2019-03-16T03:30:04.967Z,13.7
2019-03-16T03:45:04.844Z,13.8
2019-03-16T04:00:04.622Z,13.8
2019-03-16T04:15:04.400Z,13.8
2019-03-16T04:30:04.439Z,13.7
2019-03-16T04:45:04.185Z,13.7
2019-03-16T05:00:04.989Z,13.5
2019-03-16T05:15:04.871Z,13.5
2019-03-16T05:30:04.991Z,13.7
2019-03-16T05:45:04.681Z,13.5
2019-03-16T06:00:04.448Z,13.5
2019-03-16T06:15:04.143Z,13.5
2019-03-16T06:30:04.131Z,13.5
2019-03-16T06:45:04.914Z,13.5
2019-03-16T07:00:04.664Z,13.3
2019-03-16T07:15:04.415Z,13.7
2019-03-16T07:30:04.430Z,13.9
2019-03-16T07:45:08.337Z,14.1
2019-03-16T08:00:04.105Z,14.2
2019-03-16T08:15:04.497Z,14.9
2019-03-16T08:30:04.640Z,16
2019-03-16T08:45:04.897Z,17.1
2019-03-16T09:00:04.710Z,17.8
2019-03-16T09:15:04.100Z,19.8
2019-03-16T09:30:04.168Z,20.9
2019-03-16T09:45:04.927Z,22.6
2019-03-16T10:00:04.693Z,23.2
2019-03-16T10:15:05.024Z,19.3
2019-03-16T10:30:04.485Z,17.9
2019-03-16T10:45:04.832Z,17.6
2019-03-16T11:00:04.600Z,17.4
2019-03-16T11:15:04.427Z,17.2
2019-03-16T11:30:04.966Z,17.3
2019-03-16T11:45:04.272Z,17.3
2019-03-16T12:00:04.586Z,17.3
2019-03-16T12:15:04.847Z,17.4
2019-03-16T12:30:04.842Z,17.3
2019-03-16T12:45:04.623Z,17.5
2019-03-16T13:00:04.387Z,17.7
2019-03-16T13:15:04.751Z,17.7
2019-03-16T13:30:04.639Z,17.8
2019-03-16T13:45:04.875Z,17.8
2019-03-16T14:00:11.505Z,17.9
2019-03-16T14:15:04.022Z,18
2019-03-16T14:30:04.155Z,18
2019-03-16T14:45:04.477Z,18.1
2019-03-16T15:00:04.837Z,18.1
2019-03-16T15:15:04.124Z,18.2
2019-03-16T15:30:04.202Z,18.2
2019-03-16T15:45:04.453Z,18.2
2019-03-16T16:15:04.342Z,18.3
2019-03-16T16:30:04.988Z,18.3
2019-03-16T16:45:04.104Z,18.2
2019-03-16T17:00:04.472Z,18.1
2019-03-16T17:15:04.870Z,17.9
2019-03-16T17:30:04.868Z,17.8
2019-03-16T17:45:04.891Z,17.7
2019-03-16T18:00:04.459Z,17.6
2019-03-16T18:15:04.987Z,17.4
2019-03-16T18:30:04.061Z,17.3
2019-03-16T18:45:04.893Z,17.2
2019-03-16T19:00:04.201Z,17.1
2019-03-16T19:15:04.517Z,16.9
2019-03-16T19:30:04.497Z,16.8
2019-03-16T19:45:04.662Z,16.7
2019-03-16T20:00:04.640Z,16.6
2019-03-16T20:15:04.693Z,16.5
2019-03-16T20:30:04.214Z,16.6
2019-03-16T20:45:04.964Z,16.6
2019-03-16T21:00:04.843Z,16.5
2019-03-16T21:15:04.198Z,16.4
2019-03-16T21:30:04.624Z,16.3
2019-03-16T21:45:04.925Z,16.1
2019-03-16T22:00:04.154Z,16
2019-03-16T22:15:04.412Z,15.8
2019-03-16T22:30:04.363Z,15.7
2019-03-16T22:45:04.437Z,15.7
2019-03-16T23:00:04.622Z,15.5
2019-03-16T23:15:04.396Z,15.4
2019-03-16T23:30:04.918Z,15.3
2019-03-16T23:45:04.467Z,15.3
